sensor_id;sensor_type;location;lat;lon;timestamp;P1;durP1;ratioP1;P2;durP2;ratioP2
50092;SDS011;35974;47.752;10.290;2023-10-08T00:01:16;4.95;;;2.72;;
50092;SDS011;35974;47.752;10.290;2023-10-08T00:03:43;6.07;;;2.80;;
50092;SDS011;35974;47.752;10.290;2023-10-08T00:06:18;6.30;;;2.85;;
50092;SDS011;35974;47.752;10.290;2023-10-08T00:08:48;7.25;;;2.85;;
50092;SDS011;35974;47.752;10.290;2023-10-08T00:11:15;7.38;;;2.50;;
50092;SDS011;35974;47.752;10.290;2023-10-08T00:13:43;6.47;;;2.92;;
50092;SDS011;35974;47.752;10.290;2023-10-08T00:16:11;6.15;;;2.70;;
50092;SDS011;35974;47.752;10.290;2023-10-08T00:18:42;6.80;;;3.25;;
50092;SDS011;35974;47.752;10.290;2023-10-08T00:21:15;5.85;;;2.78;;
50092;SDS011;35974;47.752;10.290;2023-10-08T00:23:43;5.85;;;2.65;;
50092;SDS011;35974;47.752;10.290;2023-10-08T00:29:14;6.18;;;2.65;;
50092;SDS011;35974;47.752;10.290;2023-10-08T00:31:48;5.53;;;2.70;;
50092;SDS011;35974;47.752;10.290;2023-10-08T00:34:17;6.03;;;3.05;;
50092;SDS011;35974;47.752;10.290;2023-10-08T00:36:46;6.25;;;2.70;;
50092;SDS011;35974;47.752;10.290;2023-10-08T00:39:17;5.95;;;2.80;;
50092;SDS011;35974;47.752;10.290;2023-10-08T00:41:50;5.65;;;2.70;;
50092;SDS011;35974;47.752;10.290;2023-10-08T00:44:24;5.40;;;2.50;;
50092;SDS011;35974;47.752;10.290;2023-10-08T00:46:59;5.72;;;2.47;;
50092;SDS011;35974;47.752;10.290;2023-10-08T00:49:33;5.15;;;2.72;;
50092;SDS011;35974;47.752;10.290;2023-10-08T00:52:08;5.43;;;2.63;;
50092;SDS011;35974;47.752;10.290;2023-10-08T00:54:36;6.45;;;2.53;;
50092;SDS011;35974;47.752;10.290;2023-10-08T00:57:35;5.70;;;2.92;;
50092;SDS011;35974;47.752;10.290;2023-10-08T01:00:04;7.53;;;2.85;;
50092;SDS011;35974;47.752;10.290;2023-10-08T01:02:41;4.95;;;2.70;;
50092;SDS011;35974;47.752;10.290;2023-10-08T01:05:27;6.57;;;2.93;;
50092;SDS011;35974;47.752;10.290;2023-10-08T01:11:37;5.20;;;2.50;;
50092;SDS011;35974;47.752;10.290;2023-10-08T01:16:38;4.32;;;2.25;;
50092;SDS011;35974;47.752;10.290;2023-10-08T01:19:09;6.07;;;2.72;;
50092;SDS011;35974;47.752;10.290;2023-10-08T01:21:40;7.00;;;2.80;;
50092;SDS011;35974;47.752;10.290;2023-10-08T01:24:06;5.72;;;2.75;;
50092;SDS011;35974;47.752;10.290;2023-10-08T01:26:34;8.93;;;2.67;;
50092;SDS011;35974;47.752;10.290;2023-10-08T01:29:09;5.22;;;2.63;;
50092;SDS011;35974;47.752;10.290;2023-10-08T01:31:38;6.75;;;2.95;;
50092;SDS011;35974;47.752;10.290;2023-10-08T01:34:04;4.95;;;2.47;;
50092;SDS011;35974;47.752;10.290;2023-10-08T01:36:33;5.57;;;2.67;;
50092;SDS011;35974;47.752;10.290;2023-10-08T01:39:02;5.93;;;2.92;;
50092;SDS011;35974;47.752;10.290;2023-10-08T01:41:28;7.32;;;2.67;;
50092;SDS011;35974;47.752;10.290;2023-10-08T01:43:56;7.28;;;2.72;;
50092;SDS011;35974;47.752;10.290;2023-10-08T01:46:26;7.28;;;2.60;;
50092;SDS011;35974;47.752;10.290;2023-10-08T01:48:53;6.15;;;2.70;;
50092;SDS011;35974;47.752;10.290;2023-10-08T01:51:29;4.80;;;2.75;;
50092;SDS011;35974;47.752;10.290;2023-10-08T01:54:10;7.03;;;2.92;;
50092;SDS011;35974;47.752;10.290;2023-10-08T01:56:39;7.85;;;2.80;;
50092;SDS011;35974;47.752;10.290;2023-10-08T01:59:10;7.80;;;3.25;;
50092;SDS011;35974;47.752;10.290;2023-10-08T02:01:40;9.52;;;3.50;;
50092;SDS011;35974;47.752;10.290;2023-10-08T02:04:11;7.18;;;2.72;;
50092;SDS011;35974;47.752;10.290;2023-10-08T02:06:39;6.38;;;2.67;;
50092;SDS011;35974;47.752;10.290;2023-10-08T02:09:06;6.90;;;3.28;;
50092;SDS011;35974;47.752;10.290;2023-10-08T02:11:44;6.82;;;2.95;;
50092;SDS011;35974;47.752;10.290;2023-10-08T02:14:12;5.55;;;2.60;;
50092;SDS011;35974;47.752;10.290;2023-10-08T02:16:43;9.45;;;3.15;;
50092;SDS011;35974;47.752;10.290;2023-10-08T02:19:10;6.38;;;2.83;;
50092;SDS011;35974;47.752;10.290;2023-10-08T02:21:38;8.20;;;3.13;;
50092;SDS011;35974;47.752;10.290;2023-10-08T02:24:06;6.85;;;2.85;;
50092;SDS011;35974;47.752;10.290;2023-10-08T02:26:37;5.82;;;2.63;;
50092;SDS011;35974;47.752;10.290;2023-10-08T02:29:04;5.45;;;2.90;;
50092;SDS011;35974;47.752;10.290;2023-10-08T02:31:40;7.38;;;2.78;;
50092;SDS011;35974;47.752;10.290;2023-10-08T02:34:07;5.85;;;2.80;;
50092;SDS011;35974;47.752;10.290;2023-10-08T02:36:34;5.68;;;2.53;;
50092;SDS011;35974;47.752;10.290;2023-10-08T02:39:07;8.05;;;3.10;;
50092;SDS011;35974;47.752;10.290;2023-10-08T02:41:52;4.65;;;2.38;;
50092;SDS011;35974;47.752;10.290;2023-10-08T02:44:30;6.00;;;2.60;;
50092;SDS011;35974;47.752;10.290;2023-10-08T02:46:57;8.70;;;3.13;;
50092;SDS011;35974;47.752;10.290;2023-10-08T02:49:23;8.02;;;2.92;;
50092;SDS011;35974;47.752;10.290;2023-10-08T02:54:24;6.55;;;2.38;;
50092;SDS011;35974;47.752;10.290;2023-10-08T02:56:58;7.03;;;2.95;;
50092;SDS011;35974;47.752;10.290;2023-10-08T02:59:30;7.07;;;3.25;;
50092;SDS011;35974;47.752;10.290;2023-10-08T03:02:08;6.07;;;3.22;;
50092;SDS011;35974;47.752;10.290;2023-10-08T03:04:46;6.35;;;3.00;;
50092;SDS011;35974;47.752;10.290;2023-10-08T03:07:14;5.93;;;2.70;;
50092;SDS011;35974;47.752;10.290;2023-10-08T03:09:49;7.88;;;3.05;;
50092;SDS011;35974;47.752;10.290;2023-10-08T03:12:17;5.50;;;2.80;;
50092;SDS011;35974;47.752;10.290;2023-10-08T03:14:45;6.57;;;3.05;;
50092;SDS011;35974;47.752;10.290;2023-10-08T03:17:27;9.80;;;3.40;;
50092;SDS011;35974;47.752;10.290;2023-10-08T03:19:56;7.20;;;3.20;;
50092;SDS011;35974;47.752;10.290;2023-10-08T03:22:48;8.85;;;2.97;;
50092;SDS011;35974;47.752;10.290;2023-10-08T03:25:16;8.68;;;3.03;;
50092;SDS011;35974;47.752;10.290;2023-10-08T03:27:43;12.68;;;3.33;;
50092;SDS011;35974;47.752;10.290;2023-10-08T03:30:10;9.80;;;3.85;;
50092;SDS011;35974;47.752;10.290;2023-10-08T03:32:41;5.70;;;2.67;;
50092;SDS011;35974;47.752;10.290;2023-10-08T03:35:10;5.57;;;2.78;;
50092;SDS011;35974;47.752;10.290;2023-10-08T03:37:58;9.60;;;3.30;;
50092;SDS011;35974;47.752;10.290;2023-10-08T03:40:46;8.80;;;3.35;;
50092;SDS011;35974;47.752;10.290;2023-10-08T03:43:15;7.15;;;2.97;;
50092;SDS011;35974;47.752;10.290;2023-10-08T03:45:50;10.30;;;3.28;;
50092;SDS011;35974;47.752;10.290;2023-10-08T03:48:20;6.15;;;2.67;;
50092;SDS011;35974;47.752;10.290;2023-10-08T03:50:49;7.32;;;3.10;;
50092;SDS011;35974;47.752;10.290;2023-10-08T03:53:23;6.45;;;2.78;;
50092;SDS011;35974;47.752;10.290;2023-10-08T03:55:49;7.47;;;3.17;;
50092;SDS011;35974;47.752;10.290;2023-10-08T03:58:18;10.43;;;3.78;;
50092;SDS011;35974;47.752;10.290;2023-10-08T04:00:59;10.60;;;3.38;;
50092;SDS011;35974;47.752;10.290;2023-10-08T04:03:36;7.13;;;3.10;;
50092;SDS011;35974;47.752;10.290;2023-10-08T04:06:24;7.32;;;3.13;;
50092;SDS011;35974;47.752;10.290;2023-10-08T04:09:01;7.90;;;2.88;;
50092;SDS011;35974;47.752;10.290;2023-10-08T04:11:34;9.65;;;3.40;;
50092;SDS011;35974;47.752;10.290;2023-10-08T04:14:11;7.72;;;2.90;;
50092;SDS011;35974;47.752;10.290;2023-10-08T04:16:49;10.82;;;3.35;;
50092;SDS011;35974;47.752;10.290;2023-10-08T04:19:35;9.57;;;3.60;;
50092;SDS011;35974;47.752;10.290;2023-10-08T04:22:02;7.82;;;3.22;;
50092;SDS011;35974;47.752;10.290;2023-10-08T04:24:29;8.80;;;3.35;;
50092;SDS011;35974;47.752;10.290;2023-10-08T04:27:11;7.53;;;3.28;;
50092;SDS011;35974;47.752;10.290;2023-10-08T04:29:38;7.32;;;2.97;;
50092;SDS011;35974;47.752;10.290;2023-10-08T04:32:04;8.15;;;2.90;;
50092;SDS011;35974;47.752;10.290;2023-10-08T04:34:35;7.93;;;3.03;;
50092;SDS011;35974;47.752;10.290;2023-10-08T04:37:02;10.35;;;2.90;;
50092;SDS011;35974;47.752;10.290;2023-10-08T04:39:40;7.68;;;3.30;;
50092;SDS011;35974;47.752;10.290;2023-10-08T04:42:13;10.57;;;3.30;;
50092;SDS011;35974;47.752;10.290;2023-10-08T04:44:52;8.68;;;2.95;;
50092;SDS011;35974;47.752;10.290;2023-10-08T04:47:18;7.60;;;3.13;;
50092;SDS011;35974;47.752;10.290;2023-10-08T04:49:58;10.13;;;2.90;;
50092;SDS011;35974;47.752;10.290;2023-10-08T04:52:25;9.55;;;3.08;;
50092;SDS011;35974;47.752;10.290;2023-10-08T04:54:54;6.07;;;2.55;;
50092;SDS011;35974;47.752;10.290;2023-10-08T04:57:21;7.10;;;3.35;;
50092;SDS011;35974;47.752;10.290;2023-10-08T04:59:52;8.18;;;2.72;;
50092;SDS011;35974;47.752;10.290;2023-10-08T05:02:24;9.43;;;3.30;;
50092;SDS011;35974;47.752;10.290;2023-10-08T05:05:06;7.72;;;2.97;;
50092;SDS011;35974;47.752;10.290;2023-10-08T05:07:36;8.65;;;3.28;;
50092;SDS011;35974;47.752;10.290;2023-10-08T05:10:26;9.57;;;2.83;;
50092;SDS011;35974;47.752;10.290;2023-10-08T05:12:56;6.05;;;2.63;;
50092;SDS011;35974;47.752;10.290;2023-10-08T05:15:32;8.18;;;3.13;;
50092;SDS011;35974;47.752;10.290;2023-10-08T05:18:00;10.68;;;3.05;;
50092;SDS011;35974;47.752;10.290;2023-10-08T05:21:02;9.53;;;3.03;;
50092;SDS011;35974;47.752;10.290;2023-10-08T05:23:48;7.78;;;2.90;;
50092;SDS011;35974;47.752;10.290;2023-10-08T05:26:37;6.55;;;2.90;;
50092;SDS011;35974;47.752;10.290;2023-10-08T05:29:09;9.55;;;3.10;;
50092;SDS011;35974;47.752;10.290;2023-10-08T05:31:55;9.73;;;3.28;;
50092;SDS011;35974;47.752;10.290;2023-10-08T05:34:41;8.98;;;2.90;;
50092;SDS011;35974;47.752;10.290;2023-10-08T05:37:22;6.95;;;2.60;;
50092;SDS011;35974;47.752;10.290;2023-10-08T05:40:03;12.70;;;3.03;;
50092;SDS011;35974;47.752;10.290;2023-10-08T05:42:59;7.28;;;2.92;;
50092;SDS011;35974;47.752;10.290;2023-10-08T05:45:40;10.50;;;3.10;;
50092;SDS011;35974;47.752;10.290;2023-10-08T05:48:19;12.25;;;3.47;;
50092;SDS011;35974;47.752;10.290;2023-10-08T05:50:54;12.83;;;3.43;;
50092;SDS011;35974;47.752;10.290;2023-10-08T05:53:39;13.00;;;3.58;;
50092;SDS011;35974;47.752;10.290;2023-10-08T05:56:15;10.57;;;3.42;;
50092;SDS011;35974;47.752;10.290;2023-10-08T05:58:55;10.45;;;3.25;;
50092;SDS011;35974;47.752;10.290;2023-10-08T06:01:41;9.32;;;2.97;;
50092;SDS011;35974;47.752;10.290;2023-10-08T06:04:08;8.57;;;3.30;;
50092;SDS011;35974;47.752;10.290;2023-10-08T06:06:57;8.55;;;3.17;;
50092;SDS011;35974;47.752;10.290;2023-10-08T06:09:38;7.65;;;2.60;;
50092;SDS011;35974;47.752;10.290;2023-10-08T06:12:06;9.65;;;2.95;;
50092;SDS011;35974;47.752;10.290;2023-10-08T06:14:46;10.02;;;3.20;;
50092;SDS011;35974;47.752;10.290;2023-10-08T06:17:33;8.82;;;2.72;;
50092;SDS011;35974;47.752;10.290;2023-10-08T06:20:11;9.98;;;2.67;;
50092;SDS011;35974;47.752;10.290;2023-10-08T06:22:43;6.55;;;2.97;;
50092;SDS011;35974;47.752;10.290;2023-10-08T06:25:10;10.93;;;3.65;;
50092;SDS011;35974;47.752;10.290;2023-10-08T06:27:44;7.68;;;2.88;;
50092;SDS011;35974;47.752;10.290;2023-10-08T06:30:12;7.28;;;3.13;;
50092;SDS011;35974;47.752;10.290;2023-10-08T06:32:43;7.45;;;3.47;;
50092;SDS011;35974;47.752;10.290;2023-10-08T06:35:14;8.70;;;3.58;;
50092;SDS011;35974;47.752;10.290;2023-10-08T06:37:44;9.55;;;3.53;;
50092;SDS011;35974;47.752;10.290;2023-10-08T06:40:11;9.50;;;3.42;;
50092;SDS011;35974;47.752;10.290;2023-10-08T06:43:07;12.50;;;4.15;;
50092;SDS011;35974;47.752;10.290;2023-10-08T06:45:50;7.70;;;3.53;;
50092;SDS011;35974;47.752;10.290;2023-10-08T06:48:24;9.73;;;3.97;;
50092;SDS011;35974;47.752;10.290;2023-10-08T06:50:52;10.50;;;3.28;;
50092;SDS011;35974;47.752;10.290;2023-10-08T06:53:24;14.07;;;3.33;;
50092;SDS011;35974;47.752;10.290;2023-10-08T06:55:51;8.95;;;3.83;;
50092;SDS011;35974;47.752;10.290;2023-10-08T06:58:23;5.38;;;3.20;;
50092;SDS011;35974;47.752;10.290;2023-10-08T07:00:51;11.63;;;3.60;;
50092;SDS011;35974;47.752;10.290;2023-10-08T07:03:18;8.13;;;3.60;;
50092;SDS011;35974;47.752;10.290;2023-10-08T07:05:46;9.60;;;3.20;;
50092;SDS011;35974;47.752;10.290;2023-10-08T07:08:21;9.10;;;3.25;;
50092;SDS011;35974;47.752;10.290;2023-10-08T07:10:50;12.80;;;3.97;;
50092;SDS011;35974;47.752;10.290;2023-10-08T07:13:17;9.07;;;3.55;;
50092;SDS011;35974;47.752;10.290;2023-10-08T07:15:45;7.80;;;2.80;;
50092;SDS011;35974;47.752;10.290;2023-10-08T07:18:12;11.15;;;3.40;;
50092;SDS011;35974;47.752;10.290;2023-10-08T07:20:40;11.90;;;3.72;;
50092;SDS011;35974;47.752;10.290;2023-10-08T07:23:11;7.75;;;3.30;;
50092;SDS011;35974;47.752;10.290;2023-10-08T07:25:54;9.35;;;3.47;;
50092;SDS011;35974;47.752;10.290;2023-10-08T07:31:13;22.73;;;7.97;;
50092;SDS011;35974;47.752;10.290;2023-10-08T07:33:46;21.23;;;7.43;;
50092;SDS011;35974;47.752;10.290;2023-10-08T07:36:14;15.10;;;6.60;;
50092;SDS011;35974;47.752;10.290;2023-10-08T07:38:41;14.43;;;5.75;;
50092;SDS011;35974;47.752;10.290;2023-10-08T07:41:10;14.75;;;4.95;;
50092;SDS011;35974;47.752;10.290;2023-10-08T07:43:41;12.57;;;4.03;;
50092;SDS011;35974;47.752;10.290;2023-10-08T07:46:22;12.15;;;4.03;;
50092;SDS011;35974;47.752;10.290;2023-10-08T07:48:49;14.65;;;4.68;;
50092;SDS011;35974;47.752;10.290;2023-10-08T07:51:16;11.82;;;4.05;;
50092;SDS011;35974;47.752;10.290;2023-10-08T07:53:53;10.35;;;3.40;;
50092;SDS011;35974;47.752;10.290;2023-10-08T07:56:23;11.13;;;3.20;;
50092;SDS011;35974;47.752;10.290;2023-10-08T07:58:51;10.57;;;4.00;;
50092;SDS011;35974;47.752;10.290;2023-10-08T08:01:23;7.80;;;3.25;;
50092;SDS011;35974;47.752;10.290;2023-10-08T08:03:51;12.80;;;3.28;;
50092;SDS011;35974;47.752;10.290;2023-10-08T08:06:17;9.48;;;3.60;;
50092;SDS011;35974;47.752;10.290;2023-10-08T08:08:46;9.23;;;3.55;;
50092;SDS011;35974;47.752;10.290;2023-10-08T08:11:12;7.65;;;3.42;;
50092;SDS011;35974;47.752;10.290;2023-10-08T08:13:39;7.93;;;3.20;;
50092;SDS011;35974;47.752;10.290;2023-10-08T08:16:13;9.00;;;3.25;;
50092;SDS011;35974;47.752;10.290;2023-10-08T08:18:47;10.50;;;3.20;;
50092;SDS011;35974;47.752;10.290;2023-10-08T08:21:23;10.32;;;3.20;;
50092;SDS011;35974;47.752;10.290;2023-10-08T08:23:51;11.38;;;3.67;;
50092;SDS011;35974;47.752;10.290;2023-10-08T08:26:19;10.93;;;3.20;;
50092;SDS011;35974;47.752;10.290;2023-10-08T08:28:59;14.23;;;3.83;;
50092;SDS011;35974;47.752;10.290;2023-10-08T08:31:29;15.18;;;4.13;;
50092;SDS011;35974;47.752;10.290;2023-10-08T08:34:02;10.70;;;3.78;;
50092;SDS011;35974;47.752;10.290;2023-10-08T08:36:34;8.07;;;3.40;;
50092;SDS011;35974;47.752;10.290;2023-10-08T08:39:05;12.85;;;3.20;;
50092;SDS011;35974;47.752;10.290;2023-10-08T08:41:44;6.60;;;3.03;;
50092;SDS011;35974;47.752;10.290;2023-10-08T08:44:12;9.30;;;3.00;;
50092;SDS011;35974;47.752;10.290;2023-10-08T08:46:39;8.52;;;3.20;;
50092;SDS011;35974;47.752;10.290;2023-10-08T08:49:07;10.98;;;3.15;;
50092;SDS011;35974;47.752;10.290;2023-10-08T08:51:35;7.82;;;3.30;;
50092;SDS011;35974;47.752;10.290;2023-10-08T08:54:02;9.43;;;2.90;;
50092;SDS011;35974;47.752;10.290;2023-10-08T08:56:33;14.77;;;3.47;;
50092;SDS011;35974;47.752;10.290;2023-10-08T09:01:53;11.80;;;3.28;;
50092;SDS011;35974;47.752;10.290;2023-10-08T09:04:30;11.93;;;3.92;;
50092;SDS011;35974;47.752;10.290;2023-10-08T09:06:58;12.95;;;3.55;;
50092;SDS011;35974;47.752;10.290;2023-10-08T09:09:32;12.48;;;3.45;;
50092;SDS011;35974;47.752;10.290;2023-10-08T09:12:00;10.52;;;4.00;;
50092;SDS011;35974;47.752;10.290;2023-10-08T09:14:27;12.55;;;4.47;;
50092;SDS011;35974;47.752;10.290;2023-10-08T09:17:00;12.77;;;3.70;;
50092;SDS011;35974;47.752;10.290;2023-10-08T09:19:40;14.07;;;3.38;;
50092;SDS011;35974;47.752;10.290;2023-10-08T09:22:07;16.42;;;3.67;;
50092;SDS011;35974;47.752;10.290;2023-10-08T09:24:39;11.48;;;3.50;;
50092;SDS011;35974;47.752;10.290;2023-10-08T09:27:09;13.25;;;3.88;;
50092;SDS011;35974;47.752;10.290;2023-10-08T09:29:58;12.48;;;3.70;;
50092;SDS011;35974;47.752;10.290;2023-10-08T09:32:25;8.90;;;2.97;;
50092;SDS011;35974;47.752;10.290;2023-10-08T09:34:52;11.13;;;3.30;;
50092;SDS011;35974;47.752;10.290;2023-10-08T09:37:19;14.63;;;3.63;;
50092;SDS011;35974;47.752;10.290;2023-10-08T09:39:48;10.23;;;3.50;;
50092;SDS011;35974;47.752;10.290;2023-10-08T09:42:15;15.40;;;3.53;;
50092;SDS011;35974;47.752;10.290;2023-10-08T09:44:52;11.75;;;3.17;;
50092;SDS011;35974;47.752;10.290;2023-10-08T09:47:22;8.85;;;2.90;;
50092;SDS011;35974;47.752;10.290;2023-10-08T09:52:42;10.02;;;4.50;;
50092;SDS011;35974;47.752;10.290;2023-10-08T09:55:17;14.07;;;4.50;;
50092;SDS011;35974;47.752;10.290;2023-10-08T09:57:44;13.50;;;3.78;;
50092;SDS011;35974;47.752;10.290;2023-10-08T10:03:02;13.10;;;3.10;;
50092;SDS011;35974;47.752;10.290;2023-10-08T10:05:30;11.55;;;3.25;;
50092;SDS011;35974;47.752;10.290;2023-10-08T10:07:58;7.80;;;2.63;;
50092;SDS011;35974;47.752;10.290;2023-10-08T10:10:28;7.00;;;2.30;;
50092;SDS011;35974;47.752;10.290;2023-10-08T10:13:04;14.93;;;2.83;;
50092;SDS011;35974;47.752;10.290;2023-10-08T10:15:44;11.52;;;2.60;;
50092;SDS011;35974;47.752;10.290;2023-10-08T10:20:53;14.15;;;2.75;;
50092;SDS011;35974;47.752;10.290;2023-10-08T10:23:43;11.30;;;2.67;;
50092;SDS011;35974;47.752;10.290;2023-10-08T10:26:24;21.50;;;3.42;;
50092;SDS011;35974;47.752;10.290;2023-10-08T10:31:43;11.00;;;3.25;;
50092;SDS011;35974;47.752;10.290;2023-10-08T10:34:12;16.33;;;3.58;;
50092;SDS011;35974;47.752;10.290;2023-10-08T10:36:51;8.13;;;2.88;;
50092;SDS011;35974;47.752;10.290;2023-10-08T10:39:24;14.85;;;3.00;;
50092;SDS011;35974;47.752;10.290;2023-10-08T10:41:59;10.45;;;2.80;;
50092;SDS011;35974;47.752;10.290;2023-10-08T10:44:28;9.25;;;2.67;;
50092;SDS011;35974;47.752;10.290;2023-10-08T10:47:07;12.43;;;2.90;;
50092;SDS011;35974;47.752;10.290;2023-10-08T10:49:43;13.02;;;3.05;;
50092;SDS011;35974;47.752;10.290;2023-10-08T10:52:25;16.38;;;3.05;;
50092;SDS011;35974;47.752;10.290;2023-10-08T10:55:04;13.95;;;3.28;;
50092;SDS011;35974;47.752;10.290;2023-10-08T10:57:48;20.35;;;3.40;;
50092;SDS011;35974;47.752;10.290;2023-10-08T11:00:35;19.33;;;3.83;;
50092;SDS011;35974;47.752;10.290;2023-10-08T11:03:10;15.23;;;3.63;;
50092;SDS011;35974;47.752;10.290;2023-10-08T11:05:55;20.90;;;3.28;;
50092;SDS011;35974;47.752;10.290;2023-10-08T11:08:32;20.90;;;3.67;;
50092;SDS011;35974;47.752;10.290;2023-10-08T11:11:02;16.80;;;3.65;;
50092;SDS011;35974;47.752;10.290;2023-10-08T11:13:32;13.52;;;3.10;;
50092;SDS011;35974;47.752;10.290;2023-10-08T11:16:12;15.93;;;3.25;;
50092;SDS011;35974;47.752;10.290;2023-10-08T11:18:43;20.55;;;3.38;;
50092;SDS011;35974;47.752;10.290;2023-10-08T11:21:13;16.20;;;3.55;;
50092;SDS011;35974;47.752;10.290;2023-10-08T11:23:45;13.77;;;3.40;;
50092;SDS011;35974;47.752;10.290;2023-10-08T11:26:34;14.10;;;3.25;;
50092;SDS011;35974;47.752;10.290;2023-10-08T11:29:06;13.40;;;3.28;;
50092;SDS011;35974;47.752;10.290;2023-10-08T11:31:41;15.45;;;3.20;;
50092;SDS011;35974;47.752;10.290;2023-10-08T11:34:10;11.02;;;2.97;;
50092;SDS011;35974;47.752;10.290;2023-10-08T11:36:40;13.75;;;3.28;;
50092;SDS011;35974;47.752;10.290;2023-10-08T11:39:17;19.48;;;3.97;;
50092;SDS011;35974;47.752;10.290;2023-10-08T11:41:59;14.02;;;3.38;;
50092;SDS011;35974;47.752;10.290;2023-10-08T11:44:33;9.65;;;2.95;;
50092;SDS011;35974;47.752;10.290;2023-10-08T11:47:03;18.13;;;3.97;;
50092;SDS011;35974;47.752;10.290;2023-10-08T11:49:47;15.20;;;3.63;;
50092;SDS011;35974;47.752;10.290;2023-10-08T11:52:17;19.63;;;3.60;;
50092;SDS011;35974;47.752;10.290;2023-10-08T11:54:48;17.33;;;3.33;;
50092;SDS011;35974;47.752;10.290;2023-10-08T11:57:15;18.48;;;3.25;;
50092;SDS011;35974;47.752;10.290;2023-10-08T11:59:48;12.23;;;3.28;;
50092;SDS011;35974;47.752;10.290;2023-10-08T12:02:15;15.77;;;3.40;;
50092;SDS011;35974;47.752;10.290;2023-10-08T12:04:43;11.93;;;3.22;;
50092;SDS011;35974;47.752;10.290;2023-10-08T12:07:14;18.05;;;3.78;;
50092;SDS011;35974;47.752;10.290;2023-10-08T12:09:44;6.57;;;2.90;;
50092;SDS011;35974;47.752;10.290;2023-10-08T12:12:15;11.65;;;3.25;;
50092;SDS011;35974;47.752;10.290;2023-10-08T12:14:42;9.02;;;3.00;;
50092;SDS011;35974;47.752;10.290;2023-10-08T12:17:11;10.98;;;3.33;;
50092;SDS011;35974;47.752;10.290;2023-10-08T12:19:38;10.77;;;3.15;;
50092;SDS011;35974;47.752;10.290;2023-10-08T12:22:09;8.30;;;2.45;;
50092;SDS011;35974;47.752;10.290;2023-10-08T12:24:40;8.77;;;2.47;;
50092;SDS011;35974;47.752;10.290;2023-10-08T12:27:08;12.23;;;2.80;;
50092;SDS011;35974;47.752;10.290;2023-10-08T12:29:38;9.75;;;3.05;;
50092;SDS011;35974;47.752;10.290;2023-10-08T12:32:05;17.50;;;3.22;;
50092;SDS011;35974;47.752;10.290;2023-10-08T12:34:43;18.17;;;3.55;;
50092;SDS011;35974;47.752;10.290;2023-10-08T12:37:09;14.75;;;3.20;;
50092;SDS011;35974;47.752;10.290;2023-10-08T12:39:36;20.23;;;3.47;;
50092;SDS011;35974;47.752;10.290;2023-10-08T12:42:22;15.00;;;3.00;;
50092;SDS011;35974;47.752;10.290;2023-10-08T12:44:51;17.55;;;3.72;;
50092;SDS011;35974;47.752;10.290;2023-10-08T12:47:18;16.20;;;3.75;;
50092;SDS011;35974;47.752;10.290;2023-10-08T12:49:45;16.88;;;3.42;;
50092;SDS011;35974;47.752;10.290;2023-10-08T12:52:13;18.33;;;3.20;;
50092;SDS011;35974;47.752;10.290;2023-10-08T12:54:40;19.35;;;3.45;;
50092;SDS011;35974;47.752;10.290;2023-10-08T12:57:11;19.23;;;4.00;;
50092;SDS011;35974;47.752;10.290;2023-10-08T12:59:42;19.27;;;4.05;;
50092;SDS011;35974;47.752;10.290;2023-10-08T13:02:14;13.10;;;3.35;;
50092;SDS011;35974;47.752;10.290;2023-10-08T13:04:42;13.60;;;3.03;;
50092;SDS011;35974;47.752;10.290;2023-10-08T13:07:12;20.73;;;3.78;;
50092;SDS011;35974;47.752;10.290;2023-10-08T13:09:40;11.55;;;3.40;;
50092;SDS011;35974;47.752;10.290;2023-10-08T13:12:07;18.50;;;3.85;;
50092;SDS011;35974;47.752;10.290;2023-10-08T13:14:36;12.75;;;3.75;;
50092;SDS011;35974;47.752;10.290;2023-10-08T13:17:03;13.45;;;3.25;;
50092;SDS011;35974;47.752;10.290;2023-10-08T13:19:30;15.52;;;3.67;;
50092;SDS011;35974;47.752;10.290;2023-10-08T13:22:00;12.32;;;3.00;;
50092;SDS011;35974;47.752;10.290;2023-10-08T13:24:27;11.85;;;2.92;;
50092;SDS011;35974;47.752;10.290;2023-10-08T13:26:54;16.02;;;3.42;;
50092;SDS011;35974;47.752;10.290;2023-10-08T13:29:24;13.25;;;3.08;;
50092;SDS011;35974;47.752;10.290;2023-10-08T13:31:59;9.05;;;2.72;;
50092;SDS011;35974;47.752;10.290;2023-10-08T13:34:26;9.85;;;2.75;;
50092;SDS011;35974;47.752;10.290;2023-10-08T13:36:52;10.38;;;2.65;;
50092;SDS011;35974;47.752;10.290;2023-10-08T13:39:19;17.70;;;3.78;;
50092;SDS011;35974;47.752;10.290;2023-10-08T13:41:46;7.82;;;2.60;;
50092;SDS011;35974;47.752;10.290;2023-10-08T13:44:15;10.70;;;2.67;;
50092;SDS011;35974;47.752;10.290;2023-10-08T13:46:42;8.63;;;3.25;;
50092;SDS011;35974;47.752;10.290;2023-10-08T13:49:16;11.75;;;2.95;;
50092;SDS011;35974;47.752;10.290;2023-10-08T13:51:43;7.18;;;2.42;;
50092;SDS011;35974;47.752;10.290;2023-10-08T13:54:10;14.48;;;3.53;;
50092;SDS011;35974;47.752;10.290;2023-10-08T13:56:37;14.00;;;2.97;;
50092;SDS011;35974;47.752;10.290;2023-10-08T13:59:04;17.63;;;3.67;;
50092;SDS011;35974;47.752;10.290;2023-10-08T14:01:40;11.00;;;2.83;;
50092;SDS011;35974;47.752;10.290;2023-10-08T14:04:12;11.75;;;2.65;;
50092;SDS011;35974;47.752;10.290;2023-10-08T14:06:44;9.20;;;2.53;;
50092;SDS011;35974;47.752;10.290;2023-10-08T14:09:19;7.03;;;2.63;;
50092;SDS011;35974;47.752;10.290;2023-10-08T14:11:57;16.35;;;3.78;;
50092;SDS011;35974;47.752;10.290;2023-10-08T14:14:24;8.50;;;3.03;;
50092;SDS011;35974;47.752;10.290;2023-10-08T14:16:56;11.23;;;3.15;;
50092;SDS011;35974;47.752;10.290;2023-10-08T14:19:39;9.00;;;2.85;;
50092;SDS011;35974;47.752;10.290;2023-10-08T14:22:19;11.70;;;2.75;;
50092;SDS011;35974;47.752;10.290;2023-10-08T14:24:48;11.63;;;2.65;;
50092;SDS011;35974;47.752;10.290;2023-10-08T14:27:25;8.02;;;3.00;;
50092;SDS011;35974;47.752;10.290;2023-10-08T14:29:59;10.07;;;2.72;;
50092;SDS011;35974;47.752;10.290;2023-10-08T14:32:28;14.63;;;3.75;;
50092;SDS011;35974;47.752;10.290;2023-10-08T14:34:54;20.63;;;4.43;;
50092;SDS011;35974;47.752;10.290;2023-10-08T14:37:21;11.70;;;3.60;;
50092;SDS011;35974;47.752;10.290;2023-10-08T14:40:07;11.20;;;3.20;;
50092;SDS011;35974;47.752;10.290;2023-10-08T14:42:52;10.18;;;2.83;;
50092;SDS011;35974;47.752;10.290;2023-10-08T14:45:31;19.35;;;4.25;;
50092;SDS011;35974;47.752;10.290;2023-10-08T14:48:02;9.97;;;3.37;;
50092;SDS011;35974;47.752;10.290;2023-10-08T14:50:33;15.02;;;3.40;;
50092;SDS011;35974;47.752;10.290;2023-10-08T14:53:00;13.45;;;3.33;;
50092;SDS011;35974;47.752;10.290;2023-10-08T14:55:28;7.90;;;2.28;;
50092;SDS011;35974;47.752;10.290;2023-10-08T14:57:55;12.13;;;3.55;;
50092;SDS011;35974;47.752;10.290;2023-10-08T15:00:22;8.52;;;2.80;;
50092;SDS011;35974;47.752;10.290;2023-10-08T15:02:53;13.05;;;3.60;;
50092;SDS011;35974;47.752;10.290;2023-10-08T15:05:21;13.73;;;3.55;;
50092;SDS011;35974;47.752;10.290;2023-10-08T15:07:49;10.68;;;3.22;;
50092;SDS011;35974;47.752;10.290;2023-10-08T15:10:18;13.32;;;3.38;;
50092;SDS011;35974;47.752;10.290;2023-10-08T15:12:46;9.18;;;2.97;;
50092;SDS011;35974;47.752;10.290;2023-10-08T15:15:16;12.20;;;3.35;;
50092;SDS011;35974;47.752;10.290;2023-10-08T15:17:43;10.00;;;3.03;;
50092;SDS011;35974;47.752;10.290;2023-10-08T15:20:13;6.78;;;2.70;;
50092;SDS011;35974;47.752;10.290;2023-10-08T15:22:45;8.13;;;2.70;;
50092;SDS011;35974;47.752;10.290;2023-10-08T15:25:14;10.63;;;3.92;;
50092;SDS011;35974;47.752;10.290;2023-10-08T15:27:46;19.15;;;4.43;;